Time;durP1;ratioP1;P1;durP2;ratioP2;P2;SDS_P1;SDS_P2;PMS_P1;PMS_P2;Temp;Humidity;BMP_temperature;BMP_pressure;BME280_temperature;BME280_humidity;BME280_pressure;Samples;Min_cycle;Max_cycle;Signal;HPM_P1;HPM_P2
2022/04/18 00:01:56;;;;;;;7.00;3.00;;;;;;;13.98;33.65;101609.06;5052404;28;20114;-61
2022/04/18 00:04:23;;;;;;;5.05;2.40;;;;;;;13.99;33.62;101597.56;5052301;28;20126;-61
2022/04/18 00:06:49;;;;;;;3.17;2.00;;;;;;;13.96;33.73;101604.81;5052184;28;20072;-61
2022/04/18 00:09:16;;;;;;;4.97;2.60;;;;;;;13.96;33.71;101594.25;5050858;28;20041;-61
2022/04/18 00:11:43;;;;;;;2.80;2.00;;;;;;;13.95;33.90;101596.03;5047816;28;20045;-60
2022/04/18 00:14:10;;;;;;;5.55;2.10;;;;;;;13.94;33.63;101594.34;5049520;28;20044;-61
2022/04/18 00:16:37;;;;;;;3.50;2.20;;;;;;;13.96;33.56;101591.59;5046329;28;20041;-61
2022/04/18 00:19:04;;;;;;;4.28;2.00;;;;;;;13.91;33.58;101589.22;5048992;28;20084;-61
2022/04/18 00:21:31;;;;;;;4.60;2.10;;;;;;;13.90;33.69;101591.97;5046190;28;20083;-61
2022/04/18 00:23:57;;;;;;;4.45;1.75;;;;;;;13.88;33.64;101594.69;5045590;28;20071;-61
2022/04/18 00:26:24;;;;;;;3.55;2.15;;;;;;;13.88;33.54;101584.97;5041674;28;20448;-61
2022/04/18 00:28:51;;;;;;;6.63;2.00;;;;;;;13.88;33.62;101590.25;5042340;28;20076;-61
2022/04/18 00:31:17;;;;;;;4.10;2.70;;;;;;;13.86;33.51;101593.91;5037680;28;20390;-61
2022/04/18 00:33:44;;;;;;;6.20;3.13;;;;;;;13.85;33.55;101594.84;5041230;28;20041;-60
2022/04/18 00:36:16;;;;;;;4.43;2.20;;;;;;;13.83;33.56;101592.31;5039023;28;20081;-61
2022/04/18 00:38:44;;;;;;;5.60;2.30;;;;;;;13.82;33.58;101587.97;5040052;28;20046;-61
2022/04/18 00:41:11;;;;;;;6.00;2.30;;;;;;;13.81;33.51;101585.41;5037663;28;20045;-61
2022/04/18 00:43:46;;;;;;;6.05;2.30;;;;;;;13.78;33.50;101583.81;5045800;28;20049;-61
2022/04/18 00:46:15;;;;;;;5.22;2.45;;;;;;;13.73;33.52;101591.13;5047207;28;20080;-62
2022/04/18 00:48:43;;;;;;;4.75;2.22;;;;;;;13.73;33.50;101580.56;5040000;28;20052;-61
2022/04/18 00:51:11;;;;;;;4.32;2.10;;;;;;;13.69;33.54;101586.97;5051145;28;20049;-60
2022/04/18 00:53:39;;;;;;;6.82;2.00;;;;;;;13.64;33.63;101581.94;5051583;28;20041;-61
2022/04/18 00:56:07;;;;;;;4.15;2.08;;;;;;;13.66;33.66;101589.75;5050318;28;20551;-61
2022/04/18 00:58:34;;;;;;;5.25;2.58;;;;;;;13.66;33.50;101587.13;5051687;28;20044;-61
2022/04/18 01:01:01;;;;;;;6.82;2.25;;;;;;;13.63;33.50;101584.66;5050832;28;20053;-61
2022/04/18 01:03:30;;;;;;;4.60;2.28;;;;;;;13.58;33.43;101587.56;5051765;28;20452;-61
2022/04/18 01:06:01;;;;;;;4.28;2.00;;;;;;;13.52;33.27;101588.75;5051210;28;20061;-61
2022/04/18 01:08:29;;;;;;;4.13;2.13;;;;;;;13.49;33.51;101581.00;5051165;28;20045;-60
2022/04/18 01:10:56;;;;;;;4.85;1.90;;;;;;;13.50;33.28;101582.72;5050099;28;20045;-61
2022/04/18 01:13:22;;;;;;;3.75;1.85;;;;;;;13.52;33.30;101586.13;5051325;28;20486;-61
2022/04/18 01:15:56;;;;;;;3.83;2.17;;;;;;;13.55;33.19;101588.56;5051310;28;20041;-61
2022/04/18 01:18:23;;;;;;;2.92;2.10;;;;;;;13.55;33.16;101582.47;5051040;28;20045;-61
2022/04/18 01:20:50;;;;;;;3.10;2.22;;;;;;;13.55;33.21;101585.94;5047784;28;20101;-61
2022/04/18 01:23:17;;;;;;;3.95;2.55;;;;;;;13.55;33.22;101580.66;5051192;28;20041;-61
2022/04/18 01:31:15;;;;;;;3.53;2.28;;;;;;;13.57;33.20;101580.56;5050648;28;20852;-60
2022/04/18 01:33:42;;;;;;;5.03;2.40;;;;;;;13.53;33.29;101577.28;5051221;28;20099;-61
2022/04/18 01:36:08;;;;;;;5.13;2.45;;;;;;;13.51;33.30;101575.63;5050818;28;20041;-61
2022/04/18 01:38:35;;;;;;;6.28;2.67;;;;;;;13.51;33.26;101573.88;5052162;28;20045;-61
2022/04/18 01:41:02;;;;;;;7.30;3.22;;;;;;;13.51;33.21;101573.88;5052027;28;20095;-61
2022/04/18 01:43:28;;;;;;;6.22;3.30;;;;;;;13.50;33.31;101571.31;5047701;28;20041;-61
2022/04/18 01:45:55;;;;;;;6.55;3.67;;;;;;;13.47;33.47;101566.22;5039190;28;20041;-61
2022/04/18 01:48:22;;;;;;;7.22;3.15;;;;;;;13.48;33.44;101565.28;5043307;28;20045;-60
2022/04/18 01:50:48;;;;;;;5.50;2.38;;;;;;;13.48;33.44;101567.91;5054756;28;20064;-61
2022/04/18 01:53:15;;;;;;;4.32;2.50;;;;;;;13.45;33.47;101568.94;5055006;28;20114;-61
2022/04/18 01:55:41;;;;;;;3.78;2.72;;;;;;;13.45;33.55;101557.56;5055101;28;20045;-61
2022/04/18 01:58:08;;;;;;;4.40;2.33;;;;;;;13.43;33.54;101562.03;5052967;28;23048;-60
2022/04/18 02:00:35;;;;;;;5.43;2.67;;;;;;;13.39;33.67;101556.97;5044887;28;20045;-61
2022/04/18 02:03:02;;;;;;;7.93;4.70;;;;;;;13.37;33.69;101557.97;5054414;28;20044;-60
2022/04/18 02:05:28;;;;;;;7.20;3.72;;;;;;;13.36;33.71;101550.97;5048807;28;20041;-61
2022/04/18 02:07:55;;;;;;;7.60;4.07;;;;;;;13.36;33.77;101556.25;5054483;28;20064;-61
2022/04/18 02:10:21;;;;;;;4.93;3.58;;;;;;;13.36;33.66;101548.34;5054518;28;20041;-61
2022/04/18 02:12:48;;;;;;;6.07;3.20;;;;;;;13.36;33.78;101545.69;5054396;28;20091;-61
2022/04/18 02:15:15;;;;;;;5.07;2.42;;;;;;;13.35;33.67;101541.34;5054168;28;20114;-61
2022/04/18 02:17:42;;;;;;;3.47;1.90;;;;;;;13.34;33.85;101547.56;5052348;28;20072;-61
2022/04/18 02:20:09;;;;;;;3.67;2.20;;;;;;;13.33;33.79;101541.44;5053660;28;20118;-61
2022/04/18 02:22:36;;;;;;;3.38;2.00;;;;;;;13.30;33.78;101530.22;5054040;28;20049;-61
2022/04/18 02:25:03;;;;;;;3.00;2.20;;;;;;;13.31;33.83;101539.81;5053956;28;20071;-60
2022/04/18 02:27:29;;;;;;;4.35;2.10;;;;;;;13.25;33.90;101535.72;5054408;28;20041;-61
2022/04/18 02:29:56;;;;;;;6.22;2.70;;;;;;;13.22;34.10;101530.66;5053946;28;20497;-61
2022/04/18 02:35:07;;;;;;;3.25;2.22;;;;;;;13.16;34.04;101529.19;5053772;28;20517;-61
2022/04/18 02:37:34;;;;;;;4.82;2.55;;;;;;;13.11;34.03;101523.31;5054036;28;20072;-61
2022/04/18 02:40:01;;;;;;;3.63;2.40;;;;;;;13.07;34.15;101522.63;5053767;28;20479;-61
2022/04/18 02:42:27;;;;;;;4.20;2.30;;;;;;;13.06;34.24;101518.31;5053713;28;20052;-61
2022/04/18 02:44:54;;;;;;;4.53;1.90;;;;;;;13.03;34.71;101515.00;5053966;28;20045;-61
2022/04/18 02:47:22;;;;;;;4.18;2.20;;;;;;;13.02;34.37;101521.19;5048741;28;20551;-61
2022/04/18 02:49:50;;;;;;;4.88;2.17;;;;;;;13.00;34.36;101512.50;5053170;28;20037;-61
2022/04/18 02:52:17;;;;;;;3.90;1.95;;;;;;;12.99;34.38;101510.81;5053261;28;20045;-61
2022/04/18 02:54:44;;;;;;;5.90;2.30;;;;;;;12.96;34.42;101511.81;5053416;28;20076;-61
2022/04/18 02:57:12;;;;;;;4.65;2.83;;;;;;;12.97;34.30;101507.41;5053501;28;20068;-61
2022/04/18 02:59:39;;;;;;;3.35;2.67;;;;;;;13.00;34.34;101509.88;5049086;28;20073;-61
2022/04/18 03:02:06;;;;;;;3.88;2.25;;;;;;;13.01;34.41;101509.78;5048804;28;20500;-61
2022/04/18 03:04:33;;;;;;;5.82;2.63;;;;;;;12.98;34.49;101507.34;5048694;28;20041;-61
2022/04/18 03:07:03;;;;;;;6.05;2.35;;;;;;;13.00;34.53;101508.09;5049820;28;20095;-61
2022/04/18 03:09:29;;;;;;;5.35;2.28;;;;;;;12.95;34.58;101496.09;5050298;28;20076;-61
2022/04/18 03:11:59;;;;;;;4.53;2.67;;;;;;;12.94;34.68;101500.53;5049997;28;20118;-61
2022/04/18 03:14:25;;;;;;;4.07;2.10;;;;;;;12.92;34.90;101497.13;5036533;28;20107;-61
2022/04/18 03:16:52;;;;;;;3.60;2.17;;;;;;;12.90;34.99;101491.09;5048831;28;20045;-61
2022/04/18 03:19:19;;;;;;;4.57;2.25;;;;;;;12.90;35.05;101485.84;5049370;28;20087;-61
2022/04/18 03:21:45;;;;;;;3.88;2.10;;;;;;;12.87;34.89;101486.00;5040671;28;20091;-61
2022/04/18 03:24:12;;;;;;;5.63;2.33;;;;;;;12.87;35.00;101481.59;5045498;28;20037;-61
2022/04/18 03:26:38;;;;;;;3.22;1.98;;;;;;;12.81;34.95;101484.56;5044810;28;20076;-61
2022/04/18 03:29:05;;;;;;;4.50;2.00;;;;;;;12.83;35.09;101480.03;5049703;28;20095;-61
2022/04/18 03:31:32;;;;;;;3.10;1.85;;;;;;;12.82;35.02;101478.31;5047872;28;20136;-61
2022/04/18 03:33:59;;;;;;;5.95;2.10;;;;;;;12.82;35.10;101477.50;5049219;28;20406;-61
2022/04/18 03:42:02;;;;;;;4.97;2.55;;;;;;;12.74;34.85;101470.84;5045019;28;20528;-61
2022/04/18 03:44:29;;;;;;;2.03;1.83;;;;;;;12.72;35.10;101463.97;5049115;28;20076;-61
2022/04/18 03:46:57;;;;;;;2.35;1.80;;;;;;;12.72;34.95;101472.72;5045451;28;20068;-61
2022/04/18 03:49:24;;;;;;;3.42;1.83;;;;;;;12.66;35.16;101469.56;5048792;28;20101;-61
2022/04/18 03:51:51;;;;;;;4.93;1.85;;;;;;;12.68;35.04;101470.34;5049306;28;20057;-61
2022/04/18 03:54:17;;;;;;;8.15;2.15;;;;;;;12.64;35.17;101461.75;5035182;28;20049;-61
2022/04/18 03:56:44;;;;;;;5.75;2.40;;;;;;;12.61;35.38;101464.56;5049286;28;20076;-61
2022/04/18 03:59:10;;;;;;;4.65;1.98;;;;;;;12.59;35.46;101458.50;5046937;28;20075;-60
2022/04/18 04:01:38;;;;;;;3.63;2.13;;;;;;;12.57;35.54;101455.13;5048282;28;20045;-61
2022/04/18 04:04:04;;;;;;;2.72;2.28;;;;;;;12.54;35.45;101458.78;5048295;28;20044;-61
2022/04/18 04:06:31;;;;;;;4.05;1.83;;;;;;;12.52;35.54;101451.88;5047762;28;20065;-61
2022/04/18 04:08:58;;;;;;;2.47;1.83;;;;;;;12.49;35.65;101466.03;5049114;28;20060;-61
2022/04/18 04:11:25;;;;;;;5.25;2.20;;;;;;;12.48;35.37;101464.38;5046861;28;20060;-61
2022/04/18 04:13:52;;;;;;;2.97;2.15;;;;;;;12.49;35.48;101457.31;5048162;28;20084;-61
2022/04/18 04:16:19;;;;;;;3.22;2.10;;;;;;;12.47;35.60;101456.53;5046873;28;20437;-61
2022/04/18 04:18:47;;;;;;;3.30;1.70;;;;;;;12.48;35.47;101456.47;5047865;28;20056;-60
2022/04/18 04:21:13;;;;;;;6.07;2.25;;;;;;;12.43;35.67;101457.63;5047669;28;20098;-61
2022/04/18 04:23:40;;;;;;;3.20;2.08;;;;;;;12.39;35.59;101455.16;5046089;28;20151;-61
2022/04/18 04:26:10;;;;;;;4.78;2.10;;;;;;;12.41;35.69;101458.56;5033983;28;20458;-61
2022/04/18 04:28:37;;;;;;;3.25;1.90;;;;;;;12.41;35.70;101455.09;5037205;28;20045;-61
2022/04/18 04:31:09;;;;;;;3.40;1.63;;;;;;;12.39;35.74;101456.94;5033966;28;20516;-61
2022/04/18 04:33:36;;;;;;;2.80;1.95;;;;;;;12.38;35.78;101453.47;5036291;28;20111;-61
2022/04/18 04:36:02;;;;;;;4.32;2.53;;;;;;;12.38;35.77;101455.25;5035986;28;20076;-61
2022/04/18 04:38:29;;;;;;;7.72;2.92;;;;;;;12.36;35.86;101459.75;5034404;28;20076;-60
2022/04/18 04:40:57;;;;;;;4.80;2.00;;;;;;;12.31;36.26;101462.59;5041787;28;20037;-61
2022/04/18 04:43:29;;;;;;;2.83;2.10;;;;;;;12.31;36.04;101462.59;5040839;28;20448;-61
2022/04/18 04:45:57;;;;;;;3.72;1.77;;;;;;;12.33;35.86;101463.38;5032704;28;20071;-60
2022/04/18 04:48:24;;;;;;;4.00;2.13;;;;;;;12.33;35.99;101465.16;5037089;28;20128;-61
2022/04/18 04:50:50;;;;;;;3.90;2.20;;;;;;;12.28;36.17;101464.53;5048269;28;20049;-61
2022/04/18 04:53:18;;;;;;;5.82;2.10;;;;;;;12.23;36.34;101470.91;5048417;28;20057;-61
2022/04/18 04:55:45;;;;;;;5.13;1.92;;;;;;;12.25;36.38;101468.19;5048569;28;20052;-61
2022/04/18 04:58:12;;;;;;;4.28;1.90;;;;;;;12.24;36.41;101475.25;5042029;28;20131;-61
2022/04/18 05:00:39;;;;;;;4.88;1.83;;;;;;;12.30;36.48;101468.78;5041102;28;20049;-61
2022/04/18 05:03:06;;;;;;;3.72;1.92;;;;;;;12.31;36.33;101478.41;5047591;28;20076;-61
2022/04/18 05:05:33;;;;;;;4.15;1.98;;;;;;;12.34;36.29;101467.72;5046548;28;20106;-61
2022/04/18 05:08:00;;;;;;;5.00;2.15;;;;;;;12.36;36.25;101468.47;5047962;28;20080;-61
2022/04/18 05:10:27;;;;;;;3.88;1.90;;;;;;;12.41;36.18;101458.56;5048139;28;20128;-61
2022/04/18 05:12:53;;;;;;;7.22;2.15;;;;;;;12.49;36.05;101458.13;5046297;28;20045;-61
2022/04/18 05:15:20;;;;;;;4.35;2.00;;;;;;;12.50;36.02;101462.47;5040333;28;20040;-61
2022/04/18 05:17:46;;;;;;;3.47;1.98;;;;;;;12.55;35.85;101464.88;5051666;28;20044;-61
2022/04/18 05:20:13;;;;;;;4.95;2.53;;;;;;;12.65;35.70;101460.81;5049977;28;20046;-61
2022/04/18 05:22:40;;;;;;;6.05;1.85;;;;;;;12.72;35.65;101470.09;5051991;28;20103;-61
2022/04/18 05:25:07;;;;;;;5.85;2.38;;;;;;;12.80;35.39;101472.31;5051847;28;20068;-61
2022/04/18 05:27:34;;;;;;;2.65;1.98;;;;;;;12.83;35.44;101469.50;5052176;28;20049;-61
2022/04/18 05:30:00;;;;;;;4.75;2.45;;;;;;;12.76;35.71;101470.78;5051673;28;20076;-61
2022/04/18 05:32:27;;;;;;;4.10;2.30;;;;;;;12.78;35.94;101475.97;5052145;28;20486;-61
2022/04/18 05:34:53;;;;;;;3.83;2.25;;;;;;;12.77;36.30;101479.53;5047748;28;20045;-61
2022/04/18 05:37:20;;;;;;;6.10;2.83;;;;;;;12.82;36.47;101482.75;5051038;28;20448;-61
2022/04/18 05:39:47;;;;;;;7.30;2.45;;;;;;;12.88;36.58;101482.44;5051801;28;20077;-61
2022/04/18 05:42:13;;;;;;;7.07;2.97;;;;;;;12.90;36.91;101491.94;5045684;28;20045;-61
2022/04/18 05:44:40;;;;;;;4.88;2.80;;;;;;;12.96;37.23;101490.75;5051724;28;20077;-61
2022/04/18 05:47:07;;;;;;;6.75;2.53;;;;;;;12.99;37.62;101485.31;5039561;28;20111;-61
2022/04/18 05:49:33;;;;;;;4.47;2.70;;;;;;;13.00;37.85;101480.91;5049318;28;20099;-61
2022/04/18 05:52:00;;;;;;;5.82;2.78;;;;;;;13.04;37.79;101479.81;5051309;28;20106;-61
2022/04/18 05:54:27;;;;;;;5.07;2.50;;;;;;;13.07;38.04;101475.19;5051264;28;20486;-61
2022/04/18 05:56:53;;;;;;;5.22;2.58;;;;;;;13.17;38.34;101482.63;5047559;28;20049;-61
2022/04/18 05:59:20;;;;;;;6.18;2.63;;;;;;;13.23;38.52;101472.56;5048725;28;20073;-61
2022/04/18 06:01:46;;;;;;;7.90;2.97;;;;;;;13.24;38.77;101473.41;5051309;28;20041;-61
2022/04/18 06:04:13;;;;;;;7.00;3.03;;;;;;;13.29;38.71;101466.09;5050708;28;20072;-61
2022/04/18 06:06:40;;;;;;;5.55;2.50;;;;;;;13.29;38.70;101470.53;5047253;28;20045;-61
2022/04/18 06:09:06;;;;;;;2.97;1.85;;;;;;;13.45;39.01;101470.53;5039029;28;20096;-62
2022/04/18 06:11:33;;;;;;;6.95;2.42;;;;;;;13.79;40.86;101466.81;5047899;28;20049;-60
2022/04/18 06:13:59;;;;;;;3.83;2.50;;;;;;;13.73;40.70;101466.31;5044446;28;20041;-60
2022/04/18 06:16:26;;;;;;;7.75;2.67;;;;;;;13.78;40.16;101462.47;5034788;28;20046;-61
2022/04/18 06:18:52;;;;;;;3.60;2.50;;;;;;;14.57;40.37;101462.19;5049997;28;21064;-63
2022/04/18 06:21:19;;;;;;;5.18;2.38;;;;;;;14.62;41.27;101460.94;5047219;28;20135;-61
2022/04/18 06:23:46;;;;;;;5.70;2.50;;;;;;;14.34;40.50;101454.72;5050615;28;20559;-61
2022/04/18 06:26:13;;;;;;;7.07;2.78;;;;;;;14.21;39.64;101457.25;5049552;28;20095;-61
2022/04/18 06:28:39;;;;;;;3.90;2.50;;;;;;;14.10;38.95;101451.78;5047535;28;20531;-61
2022/04/18 06:31:06;;;;;;;4.80;2.70;;;;;;;14.26;38.26;101454.34;5050784;28;20075;-62
2022/04/18 06:33:34;;;;;;;8.23;3.05;;;;;;;14.19;37.47;101451.25;5050308;28;20076;-61
2022/04/18 06:36:02;;;;;;;5.82;2.80;;;;;;;13.79;38.16;101450.97;5043797;28;20128;-61
2022/04/18 06:38:31;;;;;;;6.70;2.80;;;;;;;13.88;37.97;101446.94;5045161;28;20220;-65
2022/04/18 06:40:58;;;;;;;6.65;2.95;;;;;;;14.06;37.54;101441.50;5050533;28;20114;-61
2022/04/18 06:43:25;;;;;;;4.70;2.70;;;;;;;14.07;37.15;101446.69;5049100;28;20570;-61
2022/04/18 06:45:51;;;;;;;5.47;3.00;;;;;;;14.28;36.49;101446.31;5048546;28;20040;-61
2022/04/18 06:48:18;;;;;;;5.65;2.83;;;;;;;14.16;36.76;101440.84;5038271;28;20069;-61
2022/04/18 06:50:45;;;;;;;3.75;2.53;;;;;;;14.32;36.62;101438.13;5049683;28;20079;-61
2022/04/18 06:53:12;;;;;;;5.65;2.78;;;;;;;14.51;35.94;101429.91;5040475;28;20041;-62
2022/04/18 06:58:24;;;;;;;3.78;2.40;;;;;;;14.89;34.94;101427.63;5048689;28;20309;-62
2022/04/18 07:00:51;;;;;;;4.35;2.97;;;;;;;15.11;34.55;101424.44;5049135;28;20053;-62
2022/04/18 07:03:18;;;;;;;4.03;2.63;;;;;;;15.21;34.08;101422.91;5048744;28;20049;-61
2022/04/18 07:05:44;;;;;;;4.38;2.58;;;;;;;15.38;33.68;101416.50;5049748;28;20520;-61
2022/04/18 07:08:11;;;;;;;5.40;2.28;;;;;;;15.48;33.47;101414.09;5047088;28;20076;-62
2022/04/18 07:10:38;;;;;;;6.30;2.53;;;;;;;15.59;32.79;101408.94;5046709;28;20075;-62
2022/04/18 07:13:09;;;;;;;4.43;2.17;;;;;;;15.75;32.21;101408.72;5049498;28;20045;-62
2022/04/18 07:15:36;;;;;;;5.03;2.20;;;;;;;15.89;32.09;101406.97;5050089;28;20049;-62
2022/04/18 07:18:03;;;;;;;4.80;2.28;;;;;;;16.02;31.88;101407.81;5049263;28;20063;-63
2022/04/18 07:20:29;;;;;;;5.47;2.25;;;;;;;16.15;31.62;101402.50;5049034;28;20509;-65
2022/04/18 07:22:56;;;;;;;4.80;2.40;;;;;;;16.24;31.81;101407.19;5037382;28;20111;-62
2022/04/18 07:25:23;;;;;;;5.43;2.38;;;;;;;16.25;31.67;101398.28;5032629;28;20048;-63
2022/04/18 07:27:50;;;;;;;4.10;2.30;;;;;;;16.25;31.06;101403.59;5035160;28;20072;-61
2022/04/18 07:30:16;;;;;;;4.18;2.20;;;;;;;16.40;30.74;101406.09;5036389;28;20401;-65
2022/04/18 07:32:44;;;;;;;5.13;2.30;;;;;;;16.58;30.69;101407.44;5041706;28;20448;-64
2022/04/18 07:35:12;;;;;;;3.60;2.00;;;;;;;16.74;30.66;101406.34;5044486;28;20064;-64
2022/04/18 07:38:48;;;;;;;5.95;2.10;;;;;;;16.81;30.13;101410.22;5037250;28;20077;-62
2022/04/18 07:40:28;;;;;;;3.03;1.83;;;;;;;16.77;30.22;101403.47;5046393;28;20037;-63
2022/04/18 07:42:55;;;;;;;3.08;2.20;;;;;;;16.90;29.89;101409.56;5032585;28;20134;-62
2022/04/18 07:45:22;;;;;;;4.22;2.10;;;;;;;17.05;29.99;101412.09;5043373;28;20041;-62
2022/04/18 07:47:52;;;;;;;4.25;2.13;;;;;;;17.13;29.94;101399.13;5035487;28;20041;-63
2022/04/18 07:50:19;;;;;;;5.03;2.20;;;;;;;17.33;30.02;101405.59;5048839;28;20079;-62
2022/04/18 07:52:45;;;;;;;4.88;2.22;;;;;;;17.41;29.58;101397.06;5048682;28;20083;-66
2022/04/18 07:55:12;;;;;;;15.95;3.42;;;;;;;17.57;29.81;101392.28;5049102;28;20094;-61
2022/04/18 07:57:38;;;;;;;13.70;2.65;;;;;;;17.88;30.89;101389.91;5048298;28;20102;-61
2022/04/18 08:00:06;;;;;;;3.75;2.10;;;;;;;17.78;31.61;101397.75;5048887;28;20102;-62
2022/04/18 08:02:34;;;;;;;4.78;2.80;;;;;;;17.57;31.19;101394.94;5045716;28;20072;-62
2022/04/18 08:05:01;;;;;;;11.75;2.30;;;;;;;17.87;30.77;101392.69;5048338;28;20052;-63
2022/04/18 08:07:27;;;;;;;9.15;2.80;;;;;;;18.17;30.98;101391.28;5048823;28;20049;-62
2022/04/18 08:09:54;;;;;;;3.70;2.30;;;;;;;18.27;31.43;101394.91;5048437;28;20045;-62
2022/04/18 08:12:20;;;;;;;3.58;2.13;;;;;;;18.31;30.29;101391.06;5048777;28;20521;-62
2022/04/18 08:14:47;;;;;;;4.38;2.00;;;;;;;18.34;29.66;101388.16;5048906;28;20425;-62
2022/04/18 08:17:13;;;;;;;4.38;2.25;;;;;;;18.19;28.94;101392.84;5048655;28;20539;-62
2022/04/18 08:19:40;;;;;;;3.00;2.00;;;;;;;18.31;28.38;101388.41;5048047;28;20112;-62
2022/04/18 08:22:06;;;;;;;3.22;2.05;;;;;;;18.27;28.33;101386.94;5048333;28;20131;-62
2022/04/18 08:24:34;;;;;;;4.13;2.13;;;;;;;18.56;28.01;101379.31;5048674;28;20102;-63
2022/04/18 08:27:01;;;;;;;3.42;1.85;;;;;;;18.58;28.01;101379.19;5048341;28;20099;-62
2022/04/18 08:29:28;;;;;;;4.60;1.92;;;;;;;18.73;27.27;101377.94;5048826;28;20076;-62
2022/04/18 08:31:54;;;;;;;3.47;1.98;;;;;;;18.73;26.99;101377.09;5047979;28;20135;-62
2022/04/18 08:34:21;;;;;;;3.42;2.00;;;;;;;18.87;26.07;101374.16;5048527;28;20044;-62
2022/04/18 08:36:47;;;;;;;4.82;1.77;;;;;;;18.96;25.70;101369.94;5048333;28;20044;-62
2022/04/18 08:39:14;;;;;;;3.67;2.17;;;;;;;19.21;25.31;101357.25;5048585;28;20045;-62
2022/04/18 08:41:46;;;;;;;2.85;1.75;;;;;;;19.38;25.25;101355.84;5048481;28;20103;-63
2022/04/18 08:44:13;;;;;;;3.85;1.80;;;;;;;19.33;24.97;101358.03;5046171;28;20099;-62
2022/04/18 08:46:40;;;;;;;2.20;1.70;;;;;;;19.07;25.05;101356.59;5040240;28;20104;-62
2022/04/18 08:54:57;;;;;;;4.00;1.83;;;;;;;19.68;23.95;101348.84;5032772;28;20075;-62
2022/04/18 08:57:24;;;;;;;5.35;1.98;;;;;;;19.42;23.99;101344.78;5048091;28;20057;-62
2022/04/18 08:59:50;;;;;;;3.90;2.28;;;;;;;19.44;24.03;101343.81;5048068;28;20049;-62
2022/04/18 09:02:17;;;;;;;8.23;2.58;;;;;;;19.72;23.85;101339.66;5048126;28;20099;-62
2022/04/18 09:04:44;;;;;;;4.55;2.00;;;;;;;19.65;23.91;101334.00;5046864;28;20063;-63
2022/04/18 09:07:13;;;;;;;3.60;2.42;;;;;;;19.86;23.69;101333.16;5047842;28;20073;-62
2022/04/18 09:09:40;;;;;;;5.03;3.13;;;;;;;20.01;23.51;101318.50;5035483;28;20232;-63
2022/04/18 09:12:21;;;;;;;14.57;7.97;;;;;;;20.41;22.99;101323.94;5029514;28;20117;-62
2022/04/18 09:14:53;;;;;;;11.50;6.90;;;;;;;20.58;23.21;101315.25;5030984;28;20051;-62
2022/04/18 09:17:34;;;;;;;6.47;4.78;;;;;;;20.62;22.87;101316.69;5029885;28;20517;-62
2022/04/18 09:20:09;;;;;;;4.53;2.35;;;;;;;20.31;23.47;101326.59;5030033;28;20053;-61
2022/04/18 09:22:42;;;;;;;3.30;1.98;;;;;;;20.46;23.02;101324.38;5029525;28;20128;-63
2022/04/18 09:25:20;;;;;;;3.33;1.70;;;;;;;20.84;22.35;101317.44;5038719;28;20049;-62
2022/04/18 09:27:57;;;;;;;3.70;1.83;;;;;;;20.63;22.57;101315.72;5038582;28;20077;-62
2022/04/18 09:30:30;;;;;;;3.65;1.92;;;;;;;20.68;22.40;101310.81;5037838;28;20096;-62
2022/04/18 09:33:01;;;;;;;3.22;1.67;;;;;;;21.12;22.31;101310.38;5039203;28;20061;-63
2022/04/18 09:35:28;;;;;;;4.22;1.73;;;;;;;21.32;22.15;101303.19;5047879;28;20118;-62
2022/04/18 09:38:06;;;;;;;4.60;1.90;;;;;;;21.30;22.26;101298.97;5047718;28;20045;-62
2022/04/18 09:40:33;;;;;;;4.18;1.83;;;;;;;21.20;22.82;101296.31;5047654;28;20453;-62
2022/04/18 09:43:00;;;;;;;3.72;2.03;;;;;;;21.59;22.43;101306.13;5047595;28;20057;-62
2022/04/18 09:45:31;;;;;;;5.20;1.60;;;;;;;21.94;21.96;101296.53;5047911;28;20056;-62
2022/04/18 09:48:02;;;;;;;2.78;1.63;;;;;;;22.06;21.87;101291.84;5038207;28;20044;-62
2022/04/18 09:53:24;;;;;;;4.20;1.90;;;;;;;21.85;22.02;101291.09;5040495;28;20049;-62
2022/04/18 09:55:52;;;;;;;;;;;;;;;21.72;22.62;101300.44;5047717;28;20049;-62
2022/04/18 09:58:20;;;;;;;3.35;1.98;;;;;;;21.92;22.02;101286.00;5041315;28;19964;-62
2022/04/18 10:01:07;;;;;;;4.60;2.20;;;;;;;21.91;22.22;101280.81;5045974;28;20112;-62
2022/04/18 10:03:35;;;;;;;5.38;2.42;;;;;;;21.93;22.34;101285.03;5051267;28;20053;-62
2022/04/18 10:06:03;;;;;;;6.82;2.08;;;;;;;22.09;21.96;101279.00;5050893;28;20049;-62
2022/04/18 10:08:30;;;;;;;5.32;2.33;;;;;;;22.39;21.55;101269.00;5051407;28;20515;-63
2022/04/18 10:11:00;;;;;;;3.28;2.20;;;;;;;22.71;21.42;101262.28;5046953;28;20046;-62
2022/04/18 10:13:27;;;;;;;4.18;2.63;;;;;;;22.62;21.28;101258.69;5049604;28;20076;-62
2022/04/18 10:15:58;;;;;;;3.08;2.15;;;;;;;22.56;21.62;101259.28;5050759;28;20056;-63
2022/04/18 10:18:25;;;;;;;4.65;2.40;;;;;;;22.76;21.41;101251.13;5050496;28;20099;-62
2022/04/18 10:21:17;;;;;;;4.53;2.13;;;;;;;23.06;21.47;101243.63;5050903;28;20068;-63
2022/04/18 10:23:44;;;;;;;2.90;2.45;;;;;;;22.86;21.72;101243.84;5050690;28;20477;-63
2022/04/18 10:26:25;;;;;;;3.55;2.38;;;;;;;23.20;21.14;101235.06;5037714;28;20057;-63
2022/04/18 10:28:54;;;;;;;5.80;2.35;;;;;;;23.47;20.80;101235.88;5042443;28;20517;-62
2022/04/18 10:31:28;;;;;;;5.05;2.53;;;;;;;23.45;21.05;101225.34;5037162;28;20073;-62
2022/04/18 10:33:59;;;;;;;6.13;2.80;;;;;;;23.47;20.99;101223.31;5041881;28;20047;-63
2022/04/18 10:36:28;;;;;;;5.18;2.70;;;;;;;22.92;21.47;101224.50;5037385;28;20045;-63
2022/04/18 10:38:56;;;;;;;4.40;2.85;;;;;;;23.28;21.45;101221.72;5041148;28;20072;-62
2022/04/18 10:41:39;;;;;;;6.10;3.25;;;;;;;23.63;21.20;101214.53;5038712;28;20117;-62
2022/04/18 10:44:06;;;;;;;3.63;2.75;;;;;;;23.79;20.93;101213.75;5041384;28;20151;-62
2022/04/18 10:46:33;;;;;;;6.32;2.63;;;;;;;23.96;20.55;101213.84;5035609;28;20080;-62
2022/04/18 10:49:03;;;;;;;3.42;2.78;;;;;;;23.80;20.55;101211.91;5043867;28;20131;-63
2022/04/18 10:51:34;;;;;;;4.15;2.83;;;;;;;23.87;20.35;101207.59;5050734;28;20132;-62
2022/04/18 10:54:13;;;;;;;5.88;3.28;;;;;;;24.02;20.32;101204.28;5050529;28;20131;-62
2022/04/18 10:56:54;;;;;;;8.70;5.53;;;;;;;24.27;19.95;101200.63;5049713;28;20041;-63
2022/04/18 10:59:26;;;;;;;5.18;3.22;;;;;;;24.45;19.62;101191.59;5041546;28;20556;-62
2022/04/18 11:01:56;;;;;;;6.65;4.07;;;;;;;24.67;19.24;101194.63;5050243;28;20045;-62
2022/04/18 11:04:25;;;;;;;3.20;2.25;;;;;;;24.62;19.35;101184.41;5049071;28;20405;-63
2022/04/18 11:07:12;;;;;;;8.40;3.28;;;;;;;24.53;19.33;101182.72;5050203;28;20481;-62
2022/04/18 11:09:43;;;;;;;4.90;2.97;;;;;;;24.39;19.76;101189.59;5049756;28;20444;-62
2022/04/18 11:12:16;;;;;;;5.95;3.10;;;;;;;24.52;19.68;101183.72;5049484;28;20076;-62
2022/04/18 11:15:03;;;;;;;2.83;2.30;;;;;;;24.57;19.76;101181.34;5050475;28;20107;-62
2022/04/18 11:17:37;;;;;;;4.78;2.72;;;;;;;24.76;19.73;101178.38;5041737;28;20111;-63
2022/04/18 11:20:27;;;;;;;3.22;2.90;;;;;;;24.90;19.37;101182.19;5049074;28;20838;-63
2022/04/18 11:23:22;;;;;;;3.58;2.65;;;;;;;24.64;19.69;101178.84;5049597;28;20132;-62
2022/04/18 11:25:55;;;;;;;4.15;2.67;;;;;;;24.76;19.46;101177.53;5038434;28;20052;-63
2022/04/18 11:28:23;;;;;;;5.03;2.63;;;;;;;25.01;19.41;101170.25;5049440;28;20099;-62
2022/04/18 11:30:50;;;;;;;3.85;2.30;;;;;;;25.22;19.29;101176.91;5049964;28;20167;-63
2022/04/18 11:33:17;;;;;;;5.32;2.63;;;;;;;25.37;19.14;101168.97;5049316;28;20126;-63
2022/04/18 11:35:43;;;;;;;3.95;3.17;;;;;;;25.64;18.71;101166.88;5049712;28;20045;-63
2022/04/18 11:38:11;;;;;;;5.97;3.10;;;;;;;25.67;18.79;101163.81;5047071;28;20080;-62
2022/04/18 11:40:39;;;;;;;3.72;2.65;;;;;;;25.67;18.43;101163.81;5047650;28;20087;-62
2022/04/18 11:43:13;;;;;;;2.85;2.53;;;;;;;25.51;18.75;101160.22;5049193;28;20118;-62
2022/04/18 11:45:40;;;;;;;3.80;2.93;;;;;;;25.23;19.25;101159.78;5049254;28;20119;-63
2022/04/18 11:48:07;;;;;;;3.08;2.58;;;;;;;25.48;19.02;101162.41;5035142;28;20284;-63
2022/04/18 11:50:37;;;;;;;6.43;3.25;;;;;;;25.40;19.28;101158.72;5049048;28;20053;-63
2022/04/18 11:53:09;;;;;;;4.40;2.78;;;;;;;25.69;18.88;101151.06;5034896;28;20489;-63
2022/04/18 11:55:48;;;;;;;5.50;2.88;;;;;;;25.89;18.77;101141.50;5040679;28;20299;-62